createdAt,value
2023-02-14T00:01:04.208Z,0.00
2023-02-14T00:06:04.133Z,0.00
2023-02-14T00:11:04.080Z,0.00
2023-02-14T00:16:04.050Z,0.00
2023-02-14T00:21:03.952Z,0.00
2023-02-14T00:26:03.878Z,0.00
2023-02-14T00:31:03.957Z,0.00
2023-02-14T00:36:03.751Z,0.00
2023-02-14T00:41:03.689Z,0.00
2023-02-14T00:46:03.654Z,0.00
2023-02-14T00:51:03.563Z,0.00
2023-02-14T00:56:03.487Z,0.00
2023-02-14T01:01:03.526Z,0.00
2023-02-14T01:06:03.362Z,0.00
2023-02-14T01:11:03.302Z,0.00
2023-02-14T01:16:03.287Z,0.00
2023-02-14T01:21:03.170Z,0.00
2023-02-14T01:26:03.100Z,0.00
2023-02-14T01:31:03.098Z,0.00
2023-02-14T01:36:02.982Z,0.00
2023-02-14T01:41:02.910Z,0.00
2023-02-14T01:46:02.967Z,0.00
2023-02-14T01:51:02.782Z,0.00
2023-02-14T01:56:02.772Z,0.00
2023-02-14T02:01:03.150Z,0.00
2023-02-14T02:06:02.582Z,0.00
2023-02-14T02:11:02.521Z,0.00
2023-02-14T02:16:02.449Z,0.00
2023-02-14T02:21:02.391Z,0.00
2023-02-14T02:26:02.320Z,0.00
2023-02-14T02:31:02.739Z,0.00
2023-02-14T02:36:02.193Z,0.00
2023-02-14T02:41:02.371Z,0.00
2023-02-14T02:46:02.159Z,0.00
2023-02-14T02:51:02.291Z,0.00
2023-02-14T02:56:01.929Z,0.00
2023-02-14T03:01:02.148Z,0.00
2023-02-14T03:06:01.802Z,0.00
2023-02-14T03:11:02.083Z,0.00
2023-02-14T03:16:01.751Z,0.00
2023-02-14T03:21:01.895Z,0.00
2023-02-14T03:26:01.550Z,0.00
2023-02-14T03:31:02.048Z,0.00
2023-02-14T03:36:01.422Z,0.00
2023-02-14T03:41:01.676Z,0.00
2023-02-14T03:46:01.338Z,0.00
2023-02-14T03:51:01.540Z,0.00
2023-02-14T03:56:01.152Z,0.00
2023-02-14T04:01:01.511Z,0.00
2023-02-14T04:06:01.023Z,0.00
2023-02-14T04:11:01.399Z,0.00
2023-02-14T04:16:00.965Z,0.00
2023-02-14T04:21:01.276Z,0.00
2023-02-14T04:26:00.759Z,0.00
2023-02-14T04:31:01.253Z,0.00
2023-02-14T04:36:00.639Z,0.00
2023-02-14T04:41:01.213Z,0.00
2023-02-14T04:46:00.510Z,0.00
2023-02-14T04:51:00.841Z,0.00
2023-02-14T04:56:00.374Z,0.00
2023-02-14T05:01:00.736Z,0.00
2023-02-14T05:06:00.246Z,0.00
2023-02-14T05:11:00.435Z,0.00
2023-02-14T05:16:00.195Z,0.00
2023-02-14T05:21:00.483Z,0.00
2023-02-14T05:25:59.986Z,0.00
2023-02-14T05:31:00.219Z,0.00
2023-02-14T05:35:59.850Z,0.00
2023-02-14T05:41:00.100Z,0.00
2023-02-14T05:45:59.859Z,0.00
2023-02-14T05:51:00.010Z,0.00
2023-02-14T05:55:59.596Z,0.00
2023-02-14T06:00:59.972Z,0.00
2023-02-14T06:05:59.471Z,0.00
2023-02-14T06:10:59.745Z,0.00
2023-02-14T06:15:59.338Z,0.00
2023-02-14T06:20:59.568Z,5.62
2023-02-14T06:25:59.205Z,5.62
2023-02-14T06:30:59.724Z,11.25
2023-02-14T06:35:59.078Z,16.87
2023-02-14T06:41:00.687Z,28.12
2023-02-14T06:45:58.976Z,33.75
2023-02-14T06:50:59.305Z,50.62
2023-02-14T06:55:58.822Z,56.25
2023-02-14T07:00:59.112Z,67.50
2023-02-14T07:05:58.690Z,84.37
2023-02-14T07:10:59.073Z,106.87
2023-02-14T07:15:58.674Z,135.00
2023-02-14T07:20:58.989Z,528.75
2023-02-14T07:25:58.431Z,961.87
2023-02-14T07:30:58.880Z,540.00
2023-02-14T07:35:58.299Z,388.12
2023-02-14T07:40:58.701Z,421.87
2023-02-14T07:45:58.191Z,478.12
2023-02-14T07:50:58.572Z,618.75
2023-02-14T07:55:58.037Z,759.37
2023-02-14T08:00:58.418Z,905.62
2023-02-14T08:05:57.903Z,945.00
2023-02-14T08:10:58.138Z,933.75
2023-02-14T08:15:57.888Z,956.25
2023-02-14T08:20:58.019Z,984.37
2023-02-14T08:25:57.666Z,1006.87
2023-02-14T08:30:57.989Z,1063.12
2023-02-14T08:35:57.514Z,1125.00
2023-02-14T08:40:57.619Z,1215.00
2023-02-14T08:45:57.525Z,1276.87
2023-02-14T08:50:57.532Z,1372.50
2023-02-14T08:55:57.401Z,1771.87
2023-02-14T09:00:57.358Z,3251.25
2023-02-14T09:05:57.113Z,2733.75
2023-02-14T09:10:57.049Z,3633.75
2023-02-14T09:15:57.014Z,3622.50
2023-02-14T09:20:57.121Z,3403.12
2023-02-14T09:25:56.828Z,4275.00
2023-02-14T09:30:56.826Z,3583.12
2023-02-14T09:35:56.706Z,3926.25
2023-02-14T09:40:56.620Z,2334.37
2023-02-14T09:45:56.640Z,3706.87
2023-02-14T09:50:56.513Z,3628.12
2023-02-14T09:55:56.443Z,3195.00
2023-02-14T10:00:56.430Z,3397.50
2023-02-14T10:05:56.310Z,3279.37
2023-02-14T10:10:56.224Z,3414.37
2023-02-14T10:15:56.166Z,3380.62
2023-02-14T10:20:56.106Z,2536.87
2023-02-14T10:25:56.038Z,3240.00
2023-02-14T10:30:56.016Z,3178.12
2023-02-14T10:35:55.902Z,2896.87
2023-02-14T10:40:55.844Z,3234.37
2023-02-14T10:45:55.811Z,3037.50
2023-02-14T10:50:55.706Z,3020.62
2023-02-14T10:55:55.654Z,2840.62
2023-02-14T11:00:55.599Z,2761.87
2023-02-14T11:05:55.532Z,2795.62
2023-02-14T11:10:55.477Z,2739.37
2023-02-14T11:15:55.398Z,2683.12
2023-02-14T11:20:55.317Z,2778.75
2023-02-14T11:25:55.268Z,2508.75
2023-02-14T11:30:55.318Z,2255.62
2023-02-14T11:35:55.140Z,3076.87
2023-02-14T11:40:55.054Z,3127.50
2023-02-14T11:45:55.055Z,2418.75
2023-02-14T11:50:54.936Z,2953.12
2023-02-14T11:55:54.880Z,1693.12
2023-02-14T12:00:54.799Z,1456.87
2023-02-14T12:05:54.741Z,1276.87
2023-02-14T12:10:54.670Z,1068.75
2023-02-14T12:15:54.644Z,1018.12
2023-02-14T12:20:54.536Z,945.00
2023-02-14T12:25:54.476Z,928.12
2023-02-14T12:30:54.491Z,826.87
2023-02-14T12:35:54.343Z,832.50
2023-02-14T12:40:54.461Z,832.50
2023-02-14T12:45:54.205Z,905.62
2023-02-14T12:50:54.129Z,3391.87
2023-02-14T12:55:54.072Z,365.62
2023-02-14T13:00:54.004Z,354.37
2023-02-14T13:05:53.937Z,331.87
2023-02-14T13:10:53.865Z,326.25
2023-02-14T13:15:53.841Z,337.50
2023-02-14T13:20:53.732Z,337.50
2023-02-14T13:25:53.670Z,303.75
2023-02-14T13:30:53.608Z,264.37
2023-02-14T13:35:53.535Z,258.75
2023-02-14T13:40:53.461Z,258.75
2023-02-14T13:45:53.797Z,258.75
2023-02-14T13:50:53.336Z,253.12
2023-02-14T13:55:53.256Z,247.50
2023-02-14T14:00:53.226Z,247.50
2023-02-14T14:05:53.123Z,241.87
2023-02-14T14:10:53.065Z,241.87
2023-02-14T14:15:52.982Z,241.87
2023-02-14T14:20:52.917Z,230.62
2023-02-14T14:25:52.854Z,230.62
2023-02-14T14:30:52.811Z,219.37
2023-02-14T14:35:52.720Z,219.37
2023-02-14T14:40:52.659Z,213.75
2023-02-14T14:45:52.818Z,208.12
2023-02-14T14:50:52.525Z,196.87
2023-02-14T14:55:52.456Z,191.25
2023-02-14T15:00:52.401Z,185.62
2023-02-14T15:05:52.347Z,180.00
2023-02-14T15:10:52.262Z,168.75
2023-02-14T15:15:52.196Z,163.12
2023-02-14T15:20:52.143Z,151.87
2023-02-14T15:25:52.071Z,146.25
2023-02-14T15:30:52.086Z,135.00
2023-02-14T15:35:51.931Z,123.75
2023-02-14T15:40:51.856Z,112.50
2023-02-14T15:45:51.870Z,101.25
2023-02-14T15:50:51.722Z,90.00
2023-02-14T15:55:51.666Z,73.12
2023-02-14T16:00:51.588Z,67.50
2023-02-14T16:05:51.521Z,56.25
2023-02-14T16:10:51.455Z,45.00
2023-02-14T16:15:51.435Z,33.75
2023-02-14T16:20:51.411Z,22.50
2023-02-14T16:25:51.256Z,16.87
2023-02-14T16:30:51.262Z,5.62
2023-02-14T16:35:51.124Z,5.62
2023-02-14T16:40:51.062Z,0.00
2023-02-14T16:45:51.093Z,0.00
2023-02-14T16:50:50.917Z,0.00
2023-02-14T16:55:50.856Z,0.00
2023-02-14T17:00:50.795Z,0.00
2023-02-14T17:05:50.725Z,0.00
2023-02-14T17:10:50.649Z,0.00
2023-02-14T17:15:50.661Z,0.00
2023-02-14T17:20:50.517Z,0.00
2023-02-14T17:25:50.477Z,0.00
2023-02-14T17:30:50.441Z,0.00
2023-02-14T17:35:50.326Z,0.00
2023-02-14T17:40:50.263Z,0.00
2023-02-14T17:45:50.199Z,0.00
2023-02-14T17:50:50.118Z,0.00
2023-02-14T17:55:50.062Z,0.00
2023-02-14T18:00:49.986Z,0.00
2023-02-14T18:05:49.927Z,0.00
2023-02-14T18:10:49.863Z,0.00
2023-02-14T18:15:49.841Z,0.00
2023-02-14T18:20:49.728Z,0.00
2023-02-14T18:25:49.677Z,0.00
2023-02-14T18:30:49.700Z,0.00
2023-02-14T18:35:49.531Z,0.00
2023-02-14T18:40:49.457Z,0.00
2023-02-14T18:45:49.482Z,0.00
2023-02-14T18:50:50.507Z,0.00
2023-02-14T18:55:49.244Z,0.00
2023-02-14T19:00:49.178Z,0.00
2023-02-14T19:05:49.117Z,0.00
2023-02-14T19:10:49.043Z,0.00
2023-02-14T19:15:48.978Z,0.00
2023-02-14T19:20:49.445Z,0.00
2023-02-14T19:25:49.053Z,0.00
2023-02-14T19:30:49.232Z,0.00
2023-02-14T19:35:49.023Z,0.00
2023-02-14T19:40:49.042Z,0.00
2023-02-14T19:45:49.355Z,0.00
2023-02-14T19:50:49.059Z,0.00
2023-02-14T19:55:48.465Z,0.00
2023-02-14T20:00:48.414Z,0.00
2023-02-14T20:05:48.332Z,0.00
2023-02-14T20:10:48.266Z,0.00
2023-02-14T20:15:48.186Z,0.00
2023-02-14T20:20:48.132Z,0.00
2023-02-14T20:25:48.042Z,0.00
2023-02-14T20:30:48.104Z,0.00
2023-02-14T20:35:47.912Z,0.00
2023-02-14T20:40:47.868Z,0.00
2023-02-14T20:45:47.825Z,0.00
2023-02-14T20:50:47.718Z,0.00
2023-02-14T20:55:47.661Z,0.00
2023-02-14T21:00:47.591Z,0.00
2023-02-14T21:05:47.543Z,0.00
2023-02-14T21:10:47.468Z,0.00
2023-02-14T21:15:47.441Z,0.00
2023-02-14T21:20:47.333Z,0.00
2023-02-14T21:25:47.263Z,0.00
2023-02-14T21:30:47.333Z,0.00
2023-02-14T21:35:47.152Z,0.00
2023-02-14T21:40:47.091Z,0.00
2023-02-14T21:45:47.009Z,0.00
2023-02-14T21:50:46.962Z,0.00
2023-02-14T21:55:46.879Z,0.00
2023-02-14T22:00:46.833Z,0.00
2023-02-14T22:05:46.752Z,0.00
2023-02-14T22:10:46.694Z,0.00
2023-02-14T22:15:46.654Z,0.00
2023-02-14T22:20:46.581Z,0.00
2023-02-14T22:25:46.499Z,0.00
2023-02-14T22:30:46.433Z,0.00
2023-02-14T22:35:46.420Z,0.00
2023-02-14T22:40:46.361Z,0.00
2023-02-14T22:45:46.272Z,0.00
2023-02-14T22:50:46.223Z,0.00
2023-02-14T22:55:46.198Z,0.00
2023-02-14T23:00:46.045Z,0.00
2023-02-14T23:05:45.974Z,0.00
2023-02-14T23:10:45.916Z,0.00
2023-02-14T23:15:45.891Z,0.00
2023-02-14T23:20:45.858Z,0.00
2023-02-14T23:25:45.713Z,0.00
2023-02-14T23:30:45.656Z,0.00
2023-02-14T23:35:45.593Z,0.00
2023-02-14T23:40:45.525Z,0.00
2023-02-14T23:45:45.522Z,0.00
2023-02-14T23:50:45.402Z,0.00
2023-02-14T23:55:45.333Z,0.00
